createdAt,value
2019-02-12T00:02:37.099Z,2.80
2019-02-12T00:05:06.891Z,2.80
2019-02-12T00:07:47.384Z,2.70
2019-02-12T00:10:16.771Z,2.70
2019-02-12T00:15:47.234Z,2.80
2019-02-12T00:18:17.668Z,2.80
2019-02-12T00:21:08.926Z,2.70
2019-02-12T00:23:35.571Z,2.80
2019-02-12T00:26:19.615Z,2.70
2019-02-12T00:28:48.412Z,2.80
2019-02-12T00:31:35.508Z,2.80
2019-02-12T00:34:08.190Z,2.70
2019-02-12T00:39:25.459Z,2.70
2019-02-12T00:41:56.508Z,2.60
2019-02-12T00:44:37.439Z,2.60
2019-02-12T00:47:08.348Z,2.60
2019-02-12T00:50:28.136Z,2.50
2019-02-12T00:53:00.020Z,2.50
2019-02-12T00:55:34.486Z,2.40
2019-02-12T00:58:08.090Z,2.30
2019-02-12T01:00:39.860Z,2.30
2019-02-12T01:03:15.189Z,2.20
2019-02-12T01:06:13.827Z,2.10
2019-02-12T01:08:44.001Z,2.10
2019-02-12T01:11:28.104Z,2.10
2019-02-12T01:13:57.717Z,2.10
2019-02-12T01:16:26.561Z,2.10
2019-02-12T01:19:23.905Z,2.10
2019-02-12T01:21:56.645Z,2.10
2019-02-12T01:24:52.026Z,2.10
2019-02-12T01:27:23.666Z,2.10
2019-02-12T01:29:52.935Z,2.10
2019-02-12T01:32:43.248Z,2.10
2019-02-12T01:35:27.702Z,2.10
2019-02-12T01:38:02.887Z,2.20
2019-02-12T01:40:40.674Z,2.20
2019-02-12T01:43:10.685Z,2.20
2019-02-12T01:45:41.313Z,2.20
2019-02-12T01:48:26.794Z,2.20
2019-02-12T01:54:23.953Z,2.30
2019-02-12T01:56:54.401Z,2.30
2019-02-12T01:59:30.746Z,2.30
2019-02-12T02:02:05.186Z,2.30
2019-02-12T02:04:35.740Z,2.30
2019-02-12T02:07:09.586Z,2.30
2019-02-12T02:10:11.164Z,2.30
2019-02-12T02:12:43.080Z,2.30
2019-02-12T02:15:25.633Z,2.30
2019-02-12T02:17:56.220Z,2.30
2019-02-12T02:20:29.798Z,2.30
2019-02-12T02:23:03.479Z,2.20
2019-02-12T02:25:41.641Z,2.20
2019-02-12T02:28:11.838Z,2.10
2019-02-12T02:31:19.022Z,2.10
2019-02-12T02:33:50.069Z,2.10
2019-02-12T02:36:46.189Z,2.10
2019-02-12T02:39:21.378Z,2.00
2019-02-12T02:41:51.803Z,2.00
2019-02-12T02:44:25.109Z,2.00
2019-02-12T02:46:54.857Z,2.00
2019-02-12T02:49:28.865Z,1.90
2019-02-12T02:52:07.821Z,1.90
2019-02-12T02:54:42.364Z,1.90
2019-02-12T02:57:14.269Z,1.90
2019-02-12T02:59:46.656Z,1.90
2019-02-12T03:02:16.928Z,1.90
2019-02-12T03:04:50.569Z,1.90
2019-02-12T03:07:25.607Z,1.90
2019-02-12T03:09:56.802Z,1.80
2019-02-12T03:12:26.959Z,1.80
2019-02-12T03:15:07.154Z,1.80
2019-02-12T03:17:37.154Z,1.80
2019-02-12T03:20:12.309Z,1.70
2019-02-12T03:22:41.815Z,1.70
2019-02-12T03:25:15.555Z,1.70
2019-02-12T03:27:49.045Z,1.70
2019-02-12T03:30:22.192Z,1.70
2019-02-12T03:32:55.043Z,1.60
2019-02-12T03:35:26.576Z,1.60
2019-02-12T03:37:56.537Z,1.60
2019-02-12T03:43:17.359Z,1.50
2019-02-12T03:45:51.234Z,1.60
2019-02-12T03:48:21.303Z,1.60
2019-02-12T03:50:56.073Z,1.60
2019-02-12T03:53:32.307Z,1.50
2019-02-12T03:56:08.537Z,1.50
2019-02-12T03:58:46.339Z,1.50
2019-02-12T04:01:15.622Z,1.50
2019-02-12T04:03:47.300Z,1.60
2019-02-12T04:06:23.029Z,1.60
2019-02-12T04:08:55.751Z,1.60
2019-02-12T04:11:25.491Z,1.60
2019-02-12T04:13:56.351Z,1.60
2019-02-12T04:16:27.932Z,1.60
2019-02-12T04:18:58.116Z,1.60
2019-02-12T04:21:27.203Z,1.60
2019-02-12T04:24:00.361Z,1.60
2019-02-12T04:26:33.424Z,1.60
2019-02-12T04:29:05.281Z,1.60
2019-02-12T04:31:37.445Z,1.60
2019-02-12T04:34:08.300Z,1.60
2019-02-12T04:36:39.271Z,1.60
2019-02-12T04:39:09.455Z,1.60
2019-02-12T04:41:45.867Z,1.60
2019-02-12T04:44:16.571Z,1.60
2019-02-12T04:46:48.897Z,1.60
2019-02-12T04:49:20.716Z,1.60
2019-02-12T04:51:51.864Z,1.60
2019-02-12T04:54:22.485Z,1.60
2019-02-12T04:56:54.038Z,1.60
2019-02-12T04:59:25.649Z,1.60
2019-02-12T05:02:02.508Z,1.50
2019-02-12T05:04:34.091Z,1.50
2019-02-12T05:07:07.377Z,1.40
2019-02-12T05:09:39.124Z,1.30
2019-02-12T05:12:11.651Z,1.20
2019-02-12T05:14:42.223Z,1.20
2019-02-12T05:17:16.789Z,1.20
2019-02-12T05:19:58.625Z,1.20
2019-02-12T05:22:27.411Z,1.10
2019-02-12T05:25:00.379Z,1.10
2019-02-12T05:27:41.493Z,1.10
2019-02-12T05:30:19.609Z,1.10
2019-02-12T05:32:49.154Z,1.10
2019-02-12T05:35:18.686Z,1.10
2019-02-12T05:37:53.293Z,1.10
2019-02-12T05:40:23.439Z,1.10
2019-02-12T05:42:54.915Z,1.20
2019-02-12T05:45:33.688Z,1.20
2019-02-12T05:48:04.941Z,1.30
2019-02-12T05:50:41.242Z,1.30
2019-02-12T05:53:11.631Z,1.30
2019-02-12T05:55:44.825Z,1.30
2019-02-12T05:58:15.219Z,1.30
2019-02-12T06:00:45.574Z,1.40
2019-02-12T06:03:20.072Z,1.40
2019-02-12T06:05:55.907Z,1.40
2019-02-12T06:08:30.934Z,1.40
2019-02-12T06:10:58.884Z,1.40
2019-02-12T06:13:36.122Z,1.40
2019-02-12T06:16:10.350Z,1.50
2019-02-12T06:18:49.907Z,1.40
2019-02-12T06:21:31.525Z,1.40
2019-02-12T06:24:12.237Z,1.40
2019-02-12T06:26:52.841Z,1.40
2019-02-12T06:29:28.556Z,1.40
2019-02-12T06:32:02.969Z,1.40
2019-02-12T06:34:35.345Z,1.40
2019-02-12T06:37:09.491Z,1.60
2019-02-12T06:39:40.977Z,1.50
2019-02-12T06:42:11.996Z,1.50
2019-02-12T06:44:41.123Z,1.50
2019-02-12T06:47:16.523Z,1.50
2019-02-12T06:53:13.239Z,1.50
2019-02-12T06:55:44.279Z,1.50
2019-02-12T06:58:23.061Z,1.50
2019-02-12T07:00:52.491Z,1.60
2019-02-12T07:03:26.103Z,1.70
2019-02-12T07:06:15.003Z,1.80
2019-02-12T07:09:13.695Z,1.80
2019-02-12T07:14:40.001Z,1.80
2019-02-12T07:17:21.031Z,2.00
2019-02-12T07:20:17.884Z,2.00
2019-02-12T07:35:38.276Z,2.30
2019-02-12T07:46:55.294Z,2.00
2019-02-12T07:52:35.299Z,2.10
2019-02-12T07:58:20.083Z,2.30
2019-02-12T08:01:04.195Z,2.30
2019-02-12T08:11:07.500Z,2.80
2019-02-12T08:19:28.023Z,4.10
2019-02-12T08:22:14.258Z,4.00
2019-02-12T08:38:50.152Z,3.10
2019-02-12T08:45:47.488Z,3.10
2019-02-12T08:48:33.703Z,3.20
2019-02-12T08:51:27.353Z,3.10
2019-02-12T08:57:40.217Z,2.90
2019-02-12T09:00:20.768Z,3.00
2019-02-12T09:02:54.870Z,3.00
2019-02-12T09:05:39.425Z,3.00
2019-02-12T09:08:29.184Z,2.90
2019-02-12T09:11:16.947Z,2.90
2019-02-12T09:13:52.537Z,3.00
2019-02-12T09:17:47.275Z,3.10
2019-02-12T09:25:58.416Z,3.20
2019-02-12T09:28:57.834Z,3.10
2019-02-12T09:31:27.689Z,3.10
2019-02-12T09:34:13.319Z,3.10
2019-02-12T09:37:06.787Z,3.30
2019-02-12T09:39:44.258Z,3.30
2019-02-12T09:42:23.550Z,3.30
2019-02-12T09:45:04.031Z,3.30
2019-02-12T09:48:06.163Z,3.30
2019-02-12T09:50:35.093Z,3.30
2019-02-12T09:53:58.569Z,3.30
2019-02-12T09:59:02.847Z,3.20
2019-02-12T10:08:16.324Z,3.10
2019-02-12T10:15:52.063Z,3.10
2019-02-12T10:18:35.161Z,3.10
2019-02-12T10:21:28.767Z,3.00
2019-02-12T10:25:08.921Z,3.00
2019-02-12T10:27:32.080Z,3.10
2019-02-12T10:30:46.168Z,3.00
2019-02-12T10:33:05.754Z,3.10
2019-02-12T10:35:45.549Z,3.20
2019-02-12T10:41:27.711Z,3.30
2019-02-12T10:47:00.010Z,3.40
2019-02-12T10:49:33.262Z,3.30
2019-02-12T10:52:54.096Z,3.30
2019-02-12T10:55:21.968Z,3.30
2019-02-12T10:57:25.140Z,3.40
2019-02-12T10:59:57.094Z,3.30
2019-02-12T11:02:46.560Z,3.30
2019-02-12T11:05:15.607Z,3.40
2019-02-12T11:30:34.691Z,3.10
2019-02-12T11:33:07.471Z,3.10
2019-02-12T12:04:50.101Z,2.90
2019-02-12T12:06:24.383Z,2.90
2019-02-12T12:10:03.355Z,3.00
2019-02-12T12:12:57.230Z,3.10
2019-02-12T12:18:28.327Z,3.10
2019-02-12T12:21:14.571Z,3.10
2019-02-12T12:29:32.190Z,3.10
2019-02-12T12:45:41.960Z,3.00
2019-02-12T12:50:47.074Z,3.00
2019-02-12T13:15:19.727Z,2.90
2019-02-12T13:18:16.629Z,2.90
2019-02-12T13:32:20.600Z,3.00
2019-02-12T13:34:53.729Z,3.00
2019-02-12T13:37:27.708Z,3.00
2019-02-12T13:40:58.779Z,3.10
2019-02-12T13:42:42.289Z,3.10
2019-02-12T13:45:22.670Z,3.20
2019-02-12T14:04:52.107Z,3.20
2019-02-12T14:13:05.989Z,3.10
2019-02-12T14:16:05.263Z,3.10
2019-02-12T15:12:13.612Z,3.20
2019-02-12T15:14:46.368Z,3.20
2019-02-12T15:17:20.728Z,3.10
2019-02-12T15:19:53.851Z,3.10
2019-02-12T15:22:26.285Z,3.10
2019-02-12T15:24:58.809Z,3.10
2019-02-12T15:27:34.853Z,3.10
2019-02-12T15:30:12.970Z,3.10
2019-02-12T15:32:54.157Z,3.00
2019-02-12T15:35:30.887Z,3.00
2019-02-12T15:38:01.543Z,2.90
2019-02-12T15:40:36.430Z,2.90
2019-02-12T15:43:19.722Z,2.90
2019-02-12T15:45:49.288Z,2.90
2019-02-12T15:48:19.690Z,2.80
2019-02-12T15:50:50.796Z,2.80
2019-02-12T15:53:23.879Z,2.80
2019-02-12T15:55:59.059Z,2.80
2019-02-12T15:58:30.305Z,2.70
2019-02-12T16:01:07.621Z,2.70
2019-02-12T16:03:47.531Z,2.70
2019-02-12T16:06:29.570Z,2.70
2019-02-12T16:09:06.092Z,2.60
2019-02-12T16:11:36.603Z,2.60
2019-02-12T16:14:12.401Z,2.60
2019-02-12T16:16:50.095Z,2.60
2019-02-12T16:19:20.395Z,2.60
2019-02-12T16:21:52.411Z,2.60
2019-02-12T16:24:25.305Z,2.50
2019-02-12T16:30:08.726Z,2.50
2019-02-12T16:32:43.536Z,2.50
2019-02-12T16:38:17.825Z,2.50
2019-02-12T16:40:56.696Z,2.40
2019-02-12T16:43:44.505Z,2.40
2019-02-12T16:46:24.684Z,2.40
2019-02-12T16:49:40.065Z,2.30
2019-02-12T16:52:20.737Z,2.20
2019-02-12T16:54:49.416Z,2.20
2019-02-12T16:57:27.423Z,2.10
2019-02-12T16:59:56.349Z,2.10
2019-02-12T17:02:31.280Z,2.00
2019-02-12T17:05:11.434Z,1.90
2019-02-12T17:08:00.426Z,1.90
2019-02-12T17:10:24.530Z,1.80
2019-02-12T17:12:58.259Z,1.80
2019-02-12T17:15:30.061Z,1.80
2019-02-12T17:18:02.069Z,1.80
2019-02-12T17:20:37.303Z,1.80
2019-02-12T17:23:17.141Z,1.70
2019-02-12T17:25:44.818Z,1.70
2019-02-12T17:28:22.627Z,1.70
2019-02-12T17:30:58.586Z,1.70
2019-02-12T17:33:33.806Z,1.70
2019-02-12T17:38:59.527Z,1.60
2019-02-12T17:41:35.162Z,1.60
2019-02-12T17:44:08.379Z,1.50
2019-02-12T17:46:42.928Z,1.50
2019-02-12T17:49:16.301Z,1.40
2019-02-12T17:51:49.850Z,1.40
2019-02-12T17:54:25.498Z,1.40
2019-02-12T17:56:58.361Z,1.20
2019-02-12T17:59:34.110Z,1.20
2019-02-12T18:02:09.084Z,1.20
2019-02-12T18:04:45.656Z,1.10
2019-02-12T18:07:20.557Z,1.10
2019-02-12T18:09:56.943Z,1.10
2019-02-12T18:12:29.101Z,1.20
2019-02-12T18:15:05.196Z,1.20
2019-02-12T18:17:32.905Z,1.10
2019-02-12T18:20:03.713Z,1.10
2019-02-12T18:22:36.104Z,1.10
2019-02-12T18:25:19.214Z,1.10
2019-02-12T18:27:55.251Z,1.10
2019-02-12T18:30:30.576Z,1.00
2019-02-12T18:33:09.670Z,1.00
2019-02-12T18:35:42.857Z,1.00
2019-02-12T18:38:16.287Z,1.00
2019-02-12T18:40:45.237Z,1.00
2019-02-12T18:46:07.630Z,0.90
2019-02-12T18:48:38.438Z,0.90
2019-02-12T18:51:11.240Z,0.80
2019-02-12T18:53:46.475Z,0.80
2019-02-12T18:56:24.800Z,0.80
2019-02-12T19:01:47.702Z,0.70
2019-02-12T19:04:21.830Z,0.70
2019-02-12T19:06:57.624Z,0.70
2019-02-12T19:12:25.916Z,0.70
2019-02-12T19:14:59.431Z,0.70
2019-02-12T19:17:39.994Z,0.60
2019-02-12T19:20:13.361Z,0.70
2019-02-12T19:22:45.017Z,0.70
2019-02-12T19:25:15.751Z,0.60
2019-02-12T19:27:48.581Z,0.60
2019-02-12T19:30:20.462Z,0.50
2019-02-12T19:32:55.566Z,0.50
2019-02-12T19:35:29.509Z,0.50
2019-02-12T19:38:02.714Z,0.40
2019-02-12T19:40:35.442Z,0.40
2019-02-12T19:43:09.290Z,0.50
2019-02-12T19:45:42.926Z,0.50
2019-02-12T19:48:19.924Z,0.50
2019-02-12T19:50:53.614Z,0.50
2019-02-12T19:53:29.500Z,0.50
2019-02-12T19:56:05.543Z,0.50
2019-02-12T19:58:35.156Z,0.50
2019-02-12T20:01:09.864Z,0.50
2019-02-12T20:03:54.415Z,0.40
2019-02-12T20:06:26.878Z,0.30
2019-02-12T20:09:08.400Z,0.30
2019-02-12T20:11:37.336Z,0.30
2019-02-12T20:14:09.973Z,0.30
2019-02-12T20:16:40.595Z,0.30
2019-02-12T20:19:10.933Z,0.20
2019-02-12T20:21:44.863Z,0.20
2019-02-12T20:24:18.241Z,0.10
2019-02-12T20:26:51.981Z,0.10
2019-02-12T20:29:24.176Z,0.10
2019-02-12T20:31:57.786Z,0.10
2019-02-12T20:34:34.140Z,0.10
2019-02-12T20:37:07.613Z,0.10
2019-02-12T20:39:42.237Z,0.10
2019-02-12T20:42:11.434Z,0.10
2019-02-12T20:44:55.466Z,0.10
2019-02-12T20:47:25.706Z,0.10
2019-02-12T20:49:56.957Z,0.00
2019-02-12T20:52:33.369Z,0.00
2019-02-12T20:55:06.582Z,0.00
2019-02-12T20:57:49.225Z,0.00
2019-02-12T21:00:28.674Z,0.00
2019-02-12T21:03:03.458Z,0.00
2019-02-12T21:11:27.621Z,0.10
2019-02-12T21:16:50.442Z,0.10
2019-02-12T21:19:21.072Z,0.00
2019-02-12T21:21:51.315Z,-0.10
2019-02-12T21:24:32.852Z,-0.10
2019-02-12T21:27:07.026Z,0.00
2019-02-12T21:29:39.912Z,0.00
2019-02-12T21:32:12.641Z,0.00
2019-02-12T21:34:43.811Z,-0.10
2019-02-12T21:37:15.662Z,-0.10
2019-02-12T21:39:55.207Z,-0.10
2019-02-12T21:42:30.227Z,-0.10
2019-02-12T21:44:59.593Z,-0.20
2019-02-12T21:47:31.480Z,-0.30
2019-02-12T21:50:09.334Z,-0.40
2019-02-12T21:52:40.125Z,-0.50
2019-02-12T21:55:18.714Z,-0.60
2019-02-12T21:57:50.216Z,-0.70
2019-02-12T22:00:23.759Z,-0.80
2019-02-12T22:03:03.683Z,-0.80
2019-02-12T22:05:34.404Z,-0.90
2019-02-12T22:08:07.446Z,-0.90
2019-02-12T22:10:46.187Z,-1.00
2019-02-12T22:13:12.694Z,-1.10
2019-02-12T22:15:42.501Z,-1.00
2019-02-12T22:21:11.046Z,-1.00
2019-02-12T22:23:47.400Z,-0.90
2019-02-12T22:26:18.379Z,-1.00
2019-02-12T22:28:47.766Z,-1.00
2019-02-12T22:31:20.153Z,-1.00
2019-02-12T22:33:51.453Z,-1.00
2019-02-12T22:36:26.575Z,-1.20
2019-02-12T22:38:58.606Z,-1.20
2019-02-12T22:41:32.936Z,-1.30
2019-02-12T22:44:03.293Z,-1.20
2019-02-12T22:46:34.779Z,-1.20
2019-02-12T22:49:04.247Z,-1.10
2019-02-12T22:51:36.417Z,-1.10
2019-02-12T22:54:10.289Z,-1.00
2019-02-12T22:56:40.485Z,-1.10
2019-02-12T22:59:10.024Z,-1.20
2019-02-12T23:01:48.786Z,-1.30
2019-02-12T23:04:20.586Z,-1.30
2019-02-12T23:06:51.804Z,-1.20
2019-02-12T23:09:23.872Z,-1.30
2019-02-12T23:11:55.447Z,-1.10
2019-02-12T23:14:25.996Z,-1.00
2019-02-12T23:16:56.485Z,-0.90
2019-02-12T23:19:28.067Z,-0.90
2019-02-12T23:22:02.545Z,-0.90
2019-02-12T23:24:32.940Z,-0.80
2019-02-12T23:27:06.861Z,-0.90
2019-02-12T23:29:38.292Z,-0.90
2019-02-12T23:32:12.010Z,-0.90
2019-02-12T23:34:45.252Z,-1.00
2019-02-12T23:37:15.394Z,-1.00
2019-02-12T23:39:48.806Z,-1.00
2019-02-12T23:42:20.063Z,-0.90
2019-02-12T23:44:51.182Z,-1.00
2019-02-12T23:47:21.690Z,-0.90
2019-02-12T23:50:04.798Z,-0.90
2019-02-12T23:52:37.140Z,-1.00
2019-02-12T23:55:12.546Z,-1.10
2019-02-12T23:57:43.768Z,-1.10
